sensor_id;sensor_type;location;lat;lon;timestamp;pressure;altitude;pressure_sealevel;temperature
13570;BMP180;6856;51.460;7.158;2023-02-18T00:00:19;100993.00;;;15.10
13570;BMP180;6856;51.460;7.158;2023-02-18T00:02:54;101014.00;;;15.10
13570;BMP180;6856;51.460;7.158;2023-02-18T00:05:53;101014.00;;;15.10
13570;BMP180;6856;51.460;7.158;2023-02-18T00:08:30;101014.00;;;15.10
13570;BMP180;6856;51.460;7.158;2023-02-18T00:11:04;101021.00;;;15.10
13570;BMP180;6856;51.460;7.158;2023-02-18T00:13:40;101017.00;;;15.10
13570;BMP180;6856;51.460;7.158;2023-02-18T00:16:14;101024.00;;;15.10
13570;BMP180;6856;51.460;7.158;2023-02-18T00:18:51;101022.00;;;15.10
13570;BMP180;6856;51.460;7.158;2023-02-18T00:21:28;101025.00;;;15.10
13570;BMP180;6856;51.460;7.158;2023-02-18T00:24:04;101018.00;;;15.10
13570;BMP180;6856;51.460;7.158;2023-02-18T00:26:40;101015.00;;;15.10
13570;BMP180;6856;51.460;7.158;2023-02-18T00:29:16;101015.00;;;15.10
13570;BMP180;6856;51.460;7.158;2023-02-18T00:31:50;101000.00;;;15.10
13570;BMP180;6856;51.460;7.158;2023-02-18T00:34:24;100986.00;;;15.10
13570;BMP180;6856;51.460;7.158;2023-02-18T00:36:58;100986.00;;;15.00
13570;BMP180;6856;51.460;7.158;2023-02-18T00:39:33;100985.00;;;15.00
13570;BMP180;6856;51.460;7.158;2023-02-18T00:42:07;100981.00;;;15.00
13570;BMP180;6856;51.460;7.158;2023-02-18T00:44:42;100986.00;;;15.00
13570;BMP180;6856;51.460;7.158;2023-02-18T00:47:17;100983.00;;;15.00
13570;BMP180;6856;51.460;7.158;2023-02-18T00:49:52;100988.00;;;15.00
13570;BMP180;6856;51.460;7.158;2023-02-18T00:52:29;100993.00;;;15.00
13570;BMP180;6856;51.460;7.158;2023-02-18T00:55:04;100980.00;;;15.00
13570;BMP180;6856;51.460;7.158;2023-02-18T00:57:38;100973.00;;;15.00
13570;BMP180;6856;51.460;7.158;2023-02-18T01:00:15;100969.00;;;15.00
13570;BMP180;6856;51.460;7.158;2023-02-18T01:02:49;100968.00;;;15.00
13570;BMP180;6856;51.460;7.158;2023-02-18T01:05:25;100966.00;;;15.00
13570;BMP180;6856;51.460;7.158;2023-02-18T01:08:00;100961.00;;;15.00
13570;BMP180;6856;51.460;7.158;2023-02-18T01:10:34;100956.00;;;15.00
13570;BMP180;6856;51.460;7.158;2023-02-18T01:13:09;100953.00;;;15.00
13570;BMP180;6856;51.460;7.158;2023-02-18T01:15:45;100954.00;;;15.00
13570;BMP180;6856;51.460;7.158;2023-02-18T01:18:20;100965.00;;;15.00
13570;BMP180;6856;51.460;7.158;2023-02-18T01:20:54;100966.00;;;15.00
13570;BMP180;6856;51.460;7.158;2023-02-18T01:23:32;100964.00;;;14.90
13570;BMP180;6856;51.460;7.158;2023-02-18T01:26:07;100953.00;;;14.90
13570;BMP180;6856;51.460;7.158;2023-02-18T01:28:42;100971.00;;;14.90
13570;BMP180;6856;51.460;7.158;2023-02-18T01:31:19;100951.00;;;14.90
13570;BMP180;6856;51.460;7.158;2023-02-18T01:33:53;100953.00;;;14.90
13570;BMP180;6856;51.460;7.158;2023-02-18T01:36:27;100952.00;;;14.90
13570;BMP180;6856;51.460;7.158;2023-02-18T01:39:01;100939.00;;;14.90
13570;BMP180;6856;51.460;7.158;2023-02-18T01:41:36;100947.00;;;14.90
13570;BMP180;6856;51.460;7.158;2023-02-18T01:44:15;100937.00;;;14.90
13570;BMP180;6856;51.460;7.158;2023-02-18T01:46:53;100933.00;;;14.80
13570;BMP180;6856;51.460;7.158;2023-02-18T01:49:33;100916.00;;;14.80
13570;BMP180;6856;51.460;7.158;2023-02-18T01:52:13;100936.00;;;14.80
13570;BMP180;6856;51.460;7.158;2023-02-18T01:54:54;100938.00;;;14.80
13570;BMP180;6856;51.460;7.158;2023-02-18T01:57:33;100936.00;;;14.80
13570;BMP180;6856;51.460;7.158;2023-02-18T02:00:13;100923.00;;;14.80
13570;BMP180;6856;51.460;7.158;2023-02-18T02:02:52;100932.00;;;14.80
13570;BMP180;6856;51.460;7.158;2023-02-18T02:05:32;100929.00;;;14.80
13570;BMP180;6856;51.460;7.158;2023-02-18T02:08:07;100931.00;;;14.80
13570;BMP180;6856;51.460;7.158;2023-02-18T02:11:03;100932.00;;;14.70
13570;BMP180;6856;51.460;7.158;2023-02-18T02:13:57;100933.00;;;14.70
13570;BMP180;6856;51.460;7.158;2023-02-18T02:16:42;100919.00;;;14.80
13570;BMP180;6856;51.460;7.158;2023-02-18T02:20:10;100919.00;;;14.70
13570;BMP180;6856;51.460;7.158;2023-02-18T02:23:40;100911.00;;;14.70
13570;BMP180;6856;51.460;7.158;2023-02-18T02:27:07;100917.00;;;14.70
13570;BMP180;6856;51.460;7.158;2023-02-18T02:30:35;100909.00;;;14.70
13570;BMP180;6856;51.460;7.158;2023-02-18T02:33:57;100906.00;;;14.70
13570;BMP180;6856;51.460;7.158;2023-02-18T02:36:43;100893.00;;;14.70
13570;BMP180;6856;51.460;7.158;2023-02-18T02:39:28;100889.00;;;14.70
13570;BMP180;6856;51.460;7.158;2023-02-18T02:42:17;100903.00;;;14.70
13570;BMP180;6856;51.460;7.158;2023-02-18T02:44:58;100889.00;;;14.80
13570;BMP180;6856;51.460;7.158;2023-02-18T02:47:48;100884.00;;;14.80
13570;BMP180;6856;51.460;7.158;2023-02-18T02:50:31;100898.00;;;14.80
13570;BMP180;6856;51.460;7.158;2023-02-18T02:53:17;100880.00;;;14.80
13570;BMP180;6856;51.460;7.158;2023-02-18T02:55:52;100883.00;;;14.80
13570;BMP180;6856;51.460;7.158;2023-02-18T02:58:27;100883.00;;;14.80
13570;BMP180;6856;51.460;7.158;2023-02-18T03:01:34;100871.00;;;14.80
13570;BMP180;6856;51.460;7.158;2023-02-18T03:04:50;100871.00;;;14.80
13570;BMP180;6856;51.460;7.158;2023-02-18T03:08:04;100876.00;;;14.80
13570;BMP180;6856;51.460;7.158;2023-02-18T03:10:56;100870.00;;;14.80
13570;BMP180;6856;51.460;7.158;2023-02-18T03:13:52;100858.00;;;14.80
13570;BMP180;6856;51.460;7.158;2023-02-18T03:16:35;100844.00;;;14.70
13570;BMP180;6856;51.460;7.158;2023-02-18T03:19:25;100834.00;;;14.70
13570;BMP180;6856;51.460;7.158;2023-02-18T03:22:07;100832.00;;;14.70
13570;BMP180;6856;51.460;7.158;2023-02-18T03:24:47;100828.00;;;14.70
13570;BMP180;6856;51.460;7.158;2023-02-18T03:27:28;100822.00;;;14.70
13570;BMP180;6856;51.460;7.158;2023-02-18T03:30:12;100820.00;;;14.70
13570;BMP180;6856;51.460;7.158;2023-02-18T03:32:52;100822.00;;;14.70
13570;BMP180;6856;51.460;7.158;2023-02-18T03:35:28;100800.00;;;14.60
13570;BMP180;6856;51.460;7.158;2023-02-18T03:38:11;100802.00;;;14.60
13570;BMP180;6856;51.460;7.158;2023-02-18T03:40:47;100813.00;;;14.60
13570;BMP180;6856;51.460;7.158;2023-02-18T03:43:23;100814.00;;;14.60
13570;BMP180;6856;51.460;7.158;2023-02-18T03:45:59;100805.00;;;14.60
13570;BMP180;6856;51.460;7.158;2023-02-18T03:48:34;100804.00;;;14.60
13570;BMP180;6856;51.460;7.158;2023-02-18T03:51:09;100800.00;;;14.60
13570;BMP180;6856;51.460;7.158;2023-02-18T03:53:45;100803.00;;;14.60
13570;BMP180;6856;51.460;7.158;2023-02-18T03:56:21;100797.00;;;14.50
13570;BMP180;6856;51.460;7.158;2023-02-18T03:59:10;100799.00;;;14.60
13570;BMP180;6856;51.460;7.158;2023-02-18T04:01:45;100803.00;;;14.60
13570;BMP180;6856;51.460;7.158;2023-02-18T04:04:19;100797.00;;;14.50
13570;BMP180;6856;51.460;7.158;2023-02-18T04:06:53;100796.00;;;14.50
13570;BMP180;6856;51.460;7.158;2023-02-18T04:09:26;100785.00;;;14.50
13570;BMP180;6856;51.460;7.158;2023-02-18T04:12:00;100794.00;;;14.60
13570;BMP180;6856;51.460;7.158;2023-02-18T04:14:36;100782.00;;;14.50
13570;BMP180;6856;51.460;7.158;2023-02-18T04:17:10;100786.00;;;14.50
13570;BMP180;6856;51.460;7.158;2023-02-18T04:19:44;100764.00;;;14.50
13570;BMP180;6856;51.460;7.158;2023-02-18T04:22:18;100766.00;;;14.50
13570;BMP180;6856;51.460;7.158;2023-02-18T04:24:52;100765.00;;;14.50
13570;BMP180;6856;51.460;7.158;2023-02-18T04:27:26;100770.00;;;14.50
13570;BMP180;6856;51.460;7.158;2023-02-18T04:30:04;100768.00;;;14.50
13570;BMP180;6856;51.460;7.158;2023-02-18T04:32:39;100762.00;;;14.50
13570;BMP180;6856;51.460;7.158;2023-02-18T04:35:13;100755.00;;;14.50
13570;BMP180;6856;51.460;7.158;2023-02-18T04:37:47;100761.00;;;14.50
13570;BMP180;6856;51.460;7.158;2023-02-18T04:40:21;100748.00;;;14.50
13570;BMP180;6856;51.460;7.158;2023-02-18T04:42:57;100748.00;;;14.50
13570;BMP180;6856;51.460;7.158;2023-02-18T04:45:33;100731.00;;;14.50
13570;BMP180;6856;51.460;7.158;2023-02-18T04:48:07;100725.00;;;14.50
13570;BMP180;6856;51.460;7.158;2023-02-18T04:50:42;100730.00;;;14.40
13570;BMP180;6856;51.460;7.158;2023-02-18T04:53:16;100724.00;;;14.40
13570;BMP180;6856;51.460;7.158;2023-02-18T04:55:51;100740.00;;;14.40
13570;BMP180;6856;51.460;7.158;2023-02-18T04:58:26;100737.00;;;14.40
13570;BMP180;6856;51.460;7.158;2023-02-18T05:01:03;100721.00;;;14.40
13570;BMP180;6856;51.460;7.158;2023-02-18T05:03:38;100723.00;;;14.40
13570;BMP180;6856;51.460;7.158;2023-02-18T05:06:13;100713.00;;;14.40
13570;BMP180;6856;51.460;7.158;2023-02-18T05:08:47;100702.00;;;14.40
13570;BMP180;6856;51.460;7.158;2023-02-18T05:11:21;100704.00;;;14.40
13570;BMP180;6856;51.460;7.158;2023-02-18T05:13:55;100699.00;;;14.40
13570;BMP180;6856;51.460;7.158;2023-02-18T05:16:32;100705.00;;;14.40
13570;BMP180;6856;51.460;7.158;2023-02-18T05:19:09;100699.00;;;14.40
13570;BMP180;6856;51.460;7.158;2023-02-18T05:21:47;100701.00;;;14.40
13570;BMP180;6856;51.460;7.158;2023-02-18T05:24:21;100692.00;;;14.40
13570;BMP180;6856;51.460;7.158;2023-02-18T05:26:55;100682.00;;;14.30
13570;BMP180;6856;51.460;7.158;2023-02-18T05:29:29;100687.00;;;14.30
13570;BMP180;6856;51.460;7.158;2023-02-18T05:32:05;100685.00;;;14.30
13570;BMP180;6856;51.460;7.158;2023-02-18T05:34:39;100672.00;;;14.30
13570;BMP180;6856;51.460;7.158;2023-02-18T05:37:13;100679.00;;;14.30
13570;BMP180;6856;51.460;7.158;2023-02-18T05:39:50;100657.00;;;14.30
13570;BMP180;6856;51.460;7.158;2023-02-18T05:42:25;100659.00;;;14.30
13570;BMP180;6856;51.460;7.158;2023-02-18T05:44:58;100652.00;;;14.20
13570;BMP180;6856;51.460;7.158;2023-02-18T05:47:35;100655.00;;;14.20
13570;BMP180;6856;51.460;7.158;2023-02-18T05:50:09;100657.00;;;14.20
13570;BMP180;6856;51.460;7.158;2023-02-18T05:52:44;100650.00;;;14.20
13570;BMP180;6856;51.460;7.158;2023-02-18T05:55:18;100644.00;;;14.10
13570;BMP180;6856;51.460;7.158;2023-02-18T05:57:52;100618.00;;;14.10
13570;BMP180;6856;51.460;7.158;2023-02-18T06:00:27;100637.00;;;14.10
13570;BMP180;6856;51.460;7.158;2023-02-18T06:03:07;100633.00;;;14.10
13570;BMP180;6856;51.460;7.158;2023-02-18T06:05:49;100639.00;;;14.10
13570;BMP180;6856;51.460;7.158;2023-02-18T06:08:23;100635.00;;;14.10
13570;BMP180;6856;51.460;7.158;2023-02-18T06:10:57;100640.00;;;14.10
13570;BMP180;6856;51.460;7.158;2023-02-18T06:13:31;100642.00;;;14.10
13570;BMP180;6856;51.460;7.158;2023-02-18T06:16:06;100641.00;;;14.00
13570;BMP180;6856;51.460;7.158;2023-02-18T06:18:45;100641.00;;;14.00
13570;BMP180;6856;51.460;7.158;2023-02-18T06:21:21;100646.00;;;14.00
13570;BMP180;6856;51.460;7.158;2023-02-18T06:23:56;100629.00;;;14.00
13570;BMP180;6856;51.460;7.158;2023-02-18T06:26:30;100616.00;;;14.00
13570;BMP180;6856;51.460;7.158;2023-02-18T06:29:07;100633.00;;;14.00
13570;BMP180;6856;51.460;7.158;2023-02-18T06:31:41;100633.00;;;14.00
13570;BMP180;6856;51.460;7.158;2023-02-18T06:34:17;100637.00;;;14.00
13570;BMP180;6856;51.460;7.158;2023-02-18T06:36:54;100625.00;;;14.00
13570;BMP180;6856;51.460;7.158;2023-02-18T06:39:28;100633.00;;;13.90
13570;BMP180;6856;51.460;7.158;2023-02-18T06:42:03;100564.00;;;13.90
13570;BMP180;6856;51.460;7.158;2023-02-18T06:44:40;100632.00;;;13.90
13570;BMP180;6856;51.460;7.158;2023-02-18T06:47:14;100636.00;;;13.90
13570;BMP180;6856;51.460;7.158;2023-02-18T06:49:49;100638.00;;;13.90
13570;BMP180;6856;51.460;7.158;2023-02-18T06:52:26;100634.00;;;13.90
13570;BMP180;6856;51.460;7.158;2023-02-18T06:55:01;100616.00;;;13.90
13570;BMP180;6856;51.460;7.158;2023-02-18T06:57:35;100649.00;;;13.90
13570;BMP180;6856;51.460;7.158;2023-02-18T07:00:10;100619.00;;;13.90
13570;BMP180;6856;51.460;7.158;2023-02-18T07:02:44;100646.00;;;13.90
13570;BMP180;6856;51.460;7.158;2023-02-18T07:05:20;100645.00;;;13.90
13570;BMP180;6856;51.460;7.158;2023-02-18T07:07:54;100613.00;;;13.90
13570;BMP180;6856;51.460;7.158;2023-02-18T07:10:27;100627.00;;;13.90
13570;BMP180;6856;51.460;7.158;2023-02-18T07:13:02;100628.00;;;13.90
13570;BMP180;6856;51.460;7.158;2023-02-18T07:15:39;100627.00;;;13.90
13570;BMP180;6856;51.460;7.158;2023-02-18T07:18:13;100618.00;;;13.90
13570;BMP180;6856;51.460;7.158;2023-02-18T07:20:50;100613.00;;;13.90
13570;BMP180;6856;51.460;7.158;2023-02-18T07:23:24;100643.00;;;13.90
13570;BMP180;6856;51.460;7.158;2023-02-18T07:26:06;100627.00;;;13.90
13570;BMP180;6856;51.460;7.158;2023-02-18T07:28:46;100645.00;;;13.90
13570;BMP180;6856;51.460;7.158;2023-02-18T07:31:20;100649.00;;;13.90
13570;BMP180;6856;51.460;7.158;2023-02-18T07:33:54;100632.00;;;13.90
13570;BMP180;6856;51.460;7.158;2023-02-18T07:36:31;100647.00;;;13.90
13570;BMP180;6856;51.460;7.158;2023-02-18T07:39:09;100645.00;;;13.90
13570;BMP180;6856;51.460;7.158;2023-02-18T07:41:42;100644.00;;;13.90
13570;BMP180;6856;51.460;7.158;2023-02-18T07:44:21;100625.00;;;13.90
13570;BMP180;6856;51.460;7.158;2023-02-18T07:47:11;100648.00;;;13.90
13570;BMP180;6856;51.460;7.158;2023-02-18T07:49:45;100632.00;;;13.90
13570;BMP180;6856;51.460;7.158;2023-02-18T07:52:24;100601.00;;;13.90
13570;BMP180;6856;51.460;7.158;2023-02-18T07:54:59;100664.00;;;13.90
13570;BMP180;6856;51.460;7.158;2023-02-18T07:57:33;100644.00;;;13.90
13570;BMP180;6856;51.460;7.158;2023-02-18T08:00:27;100619.00;;;13.80
13570;BMP180;6856;51.460;7.158;2023-02-18T08:03:04;100652.00;;;13.90
13570;BMP180;6856;51.460;7.158;2023-02-18T08:05:39;100677.00;;;13.90
13570;BMP180;6856;51.460;7.158;2023-02-18T08:08:19;100679.00;;;13.90
13570;BMP180;6856;51.460;7.158;2023-02-18T08:10:56;100676.00;;;13.90
13570;BMP180;6856;51.460;7.158;2023-02-18T08:13:33;100677.00;;;13.90
13570;BMP180;6856;51.460;7.158;2023-02-18T08:16:09;100680.00;;;13.90
13570;BMP180;6856;51.460;7.158;2023-02-18T08:18:43;100668.00;;;13.90
13570;BMP180;6856;51.460;7.158;2023-02-18T08:21:22;100668.00;;;13.80
13570;BMP180;6856;51.460;7.158;2023-02-18T08:24:01;100662.00;;;13.90
13570;BMP180;6856;51.460;7.158;2023-02-18T08:26:39;100670.00;;;13.90
13570;BMP180;6856;51.460;7.158;2023-02-18T08:29:31;100665.00;;;13.90
13570;BMP180;6856;51.460;7.158;2023-02-18T08:32:05;100672.00;;;13.80
13570;BMP180;6856;51.460;7.158;2023-02-18T08:34:41;100671.00;;;13.80
13570;BMP180;6856;51.460;7.158;2023-02-18T08:37:15;100677.00;;;13.80
13570;BMP180;6856;51.460;7.158;2023-02-18T08:39:53;100675.00;;;13.70
13570;BMP180;6856;51.460;7.158;2023-02-18T08:42:28;100674.00;;;13.70
13570;BMP180;6856;51.460;7.158;2023-02-18T08:45:02;100675.00;;;13.70
13570;BMP180;6856;51.460;7.158;2023-02-18T08:47:38;100664.00;;;13.70
13570;BMP180;6856;51.460;7.158;2023-02-18T08:50:33;100667.00;;;13.70
13570;BMP180;6856;51.460;7.158;2023-02-18T08:53:08;100668.00;;;13.70
13570;BMP180;6856;51.460;7.158;2023-02-18T08:55:44;100666.00;;;13.70
13570;BMP180;6856;51.460;7.158;2023-02-18T08:58:45;100669.00;;;13.70
13570;BMP180;6856;51.460;7.158;2023-02-18T09:01:20;100629.00;;;13.70
13570;BMP180;6856;51.460;7.158;2023-02-18T09:03:55;100675.00;;;13.60
13570;BMP180;6856;51.460;7.158;2023-02-18T09:06:29;100668.00;;;13.60
13570;BMP180;6856;51.460;7.158;2023-02-18T09:09:05;100672.00;;;13.60
13570;BMP180;6856;51.460;7.158;2023-02-18T09:11:42;100655.00;;;13.60
13570;BMP180;6856;51.460;7.158;2023-02-18T09:14:16;100666.00;;;13.60
13570;BMP180;6856;51.460;7.158;2023-02-18T09:16:50;100656.00;;;13.50
13570;BMP180;6856;51.460;7.158;2023-02-18T09:19:24;100670.00;;;13.50
13570;BMP180;6856;51.460;7.158;2023-02-18T09:21:58;100662.00;;;13.50
13570;BMP180;6856;51.460;7.158;2023-02-18T09:24:36;100641.00;;;13.50
13570;BMP180;6856;51.460;7.158;2023-02-18T09:27:12;100650.00;;;13.50
13570;BMP180;6856;51.460;7.158;2023-02-18T09:29:46;100634.00;;;13.50
13570;BMP180;6856;51.460;7.158;2023-02-18T09:32:21;100646.00;;;13.50
13570;BMP180;6856;51.460;7.158;2023-02-18T09:35:06;100686.00;;;13.50
13570;BMP180;6856;51.460;7.158;2023-02-18T09:37:40;100674.00;;;13.50
13570;BMP180;6856;51.460;7.158;2023-02-18T09:40:29;100664.00;;;13.30
13570;BMP180;6856;51.460;7.158;2023-02-18T09:43:21;100666.00;;;13.40
13570;BMP180;6856;51.460;7.158;2023-02-18T09:46:00;100655.00;;;13.50
13570;BMP180;6856;51.460;7.158;2023-02-18T09:48:36;100654.00;;;13.50
13570;BMP180;6856;51.460;7.158;2023-02-18T09:51:14;100653.00;;;13.40
13570;BMP180;6856;51.460;7.158;2023-02-18T09:53:54;100666.00;;;13.50
13570;BMP180;6856;51.460;7.158;2023-02-18T09:56:36;100681.00;;;13.50
13570;BMP180;6856;51.460;7.158;2023-02-18T09:59:18;100661.00;;;13.50
13570;BMP180;6856;51.460;7.158;2023-02-18T10:01:56;100653.00;;;13.50
13570;BMP180;6856;51.460;7.158;2023-02-18T10:04:51;100656.00;;;13.50
13570;BMP180;6856;51.460;7.158;2023-02-18T10:07:32;100576.00;;;13.50
13570;BMP180;6856;51.460;7.158;2023-02-18T10:10:20;100643.00;;;13.50
13570;BMP180;6856;51.460;7.158;2023-02-18T10:13:02;100608.00;;;13.50
13570;BMP180;6856;51.460;7.158;2023-02-18T10:15:39;100639.00;;;13.50
13570;BMP180;6856;51.460;7.158;2023-02-18T10:18:25;100651.00;;;13.50
13570;BMP180;6856;51.460;7.158;2023-02-18T10:21:07;100641.00;;;13.50
13570;BMP180;6856;51.460;7.158;2023-02-18T10:23:53;100656.00;;;13.50
13570;BMP180;6856;51.460;7.158;2023-02-18T10:26:36;100645.00;;;13.40
13570;BMP180;6856;51.460;7.158;2023-02-18T10:29:24;100651.00;;;13.50
13570;BMP180;6856;51.460;7.158;2023-02-18T10:32:09;100627.00;;;13.50
13570;BMP180;6856;51.460;7.158;2023-02-18T10:34:52;100645.00;;;13.40
13570;BMP180;6856;51.460;7.158;2023-02-18T10:37:52;100660.00;;;13.40
13570;BMP180;6856;51.460;7.158;2023-02-18T10:40:35;100656.00;;;13.40
13570;BMP180;6856;51.460;7.158;2023-02-18T10:43:22;100662.00;;;13.40
13570;BMP180;6856;51.460;7.158;2023-02-18T10:46:16;100663.00;;;13.40
13570;BMP180;6856;51.460;7.158;2023-02-18T10:49:33;100674.00;;;13.40
13570;BMP180;6856;51.460;7.158;2023-02-18T10:52:17;100685.00;;;13.30
13570;BMP180;6856;51.460;7.158;2023-02-18T10:54:58;100628.00;;;13.40
13570;BMP180;6856;51.460;7.158;2023-02-18T10:57:32;100681.00;;;13.40
13570;BMP180;6856;51.460;7.158;2023-02-18T11:00:18;100685.00;;;13.40
13570;BMP180;6856;51.460;7.158;2023-02-18T11:03:15;100684.00;;;13.40
13570;BMP180;6856;51.460;7.158;2023-02-18T11:05:55;100689.00;;;13.40
13570;BMP180;6856;51.460;7.158;2023-02-18T11:08:44;100686.00;;;13.40
13570;BMP180;6856;51.460;7.158;2023-02-18T11:11:28;100700.00;;;13.30
13570;BMP180;6856;51.460;7.158;2023-02-18T11:14:06;100706.00;;;13.40
13570;BMP180;6856;51.460;7.158;2023-02-18T11:16:45;100699.00;;;13.40
13570;BMP180;6856;51.460;7.158;2023-02-18T11:19:32;100704.00;;;13.40
13570;BMP180;6856;51.460;7.158;2023-02-18T11:22:17;100705.00;;;13.40
13570;BMP180;6856;51.460;7.158;2023-02-18T11:24:57;100677.00;;;13.40
13570;BMP180;6856;51.460;7.158;2023-02-18T11:27:43;100703.00;;;13.40
13570;BMP180;6856;51.460;7.158;2023-02-18T11:30:25;100691.00;;;13.40
13570;BMP180;6856;51.460;7.158;2023-02-18T11:33:06;100692.00;;;13.40
13570;BMP180;6856;51.460;7.158;2023-02-18T11:35:49;100663.00;;;13.30
13570;BMP180;6856;51.460;7.158;2023-02-18T11:38:33;100669.00;;;13.30
13570;BMP180;6856;51.460;7.158;2023-02-18T11:41:11;100701.00;;;13.30
13570;BMP180;6856;51.460;7.158;2023-02-18T11:43:50;100681.00;;;13.30
13570;BMP180;6856;51.460;7.158;2023-02-18T11:46:55;100683.00;;;13.40
13570;BMP180;6856;51.460;7.158;2023-02-18T11:49:33;100683.00;;;13.40
13570;BMP180;6856;51.460;7.158;2023-02-18T11:52:18;100693.00;;;13.40
13570;BMP180;6856;51.460;7.158;2023-02-18T11:55:03;100698.00;;;13.30
13570;BMP180;6856;51.460;7.158;2023-02-18T11:57:42;100685.00;;;13.30
13570;BMP180;6856;51.460;7.158;2023-02-18T12:00:34;100685.00;;;13.30
13570;BMP180;6856;51.460;7.158;2023-02-18T12:03:24;100690.00;;;13.30
13570;BMP180;6856;51.460;7.158;2023-02-18T12:06:04;100674.00;;;13.30
13570;BMP180;6856;51.460;7.158;2023-02-18T12:08:51;100689.00;;;13.30
13570;BMP180;6856;51.460;7.158;2023-02-18T12:11:33;100673.00;;;13.30
13570;BMP180;6856;51.460;7.158;2023-02-18T12:14:15;100683.00;;;13.30
13570;BMP180;6856;51.460;7.158;2023-02-18T12:17:25;100682.00;;;13.30
13570;BMP180;6856;51.460;7.158;2023-02-18T12:20:30;100675.00;;;13.30
13570;BMP180;6856;51.460;7.158;2023-02-18T12:23:21;100684.00;;;13.30
13570;BMP180;6856;51.460;7.158;2023-02-18T12:26:18;100679.00;;;13.30
13570;BMP180;6856;51.460;7.158;2023-02-18T12:29:32;100672.00;;;13.30
13570;BMP180;6856;51.460;7.158;2023-02-18T12:32:45;100684.00;;;13.30
13570;BMP180;6856;51.460;7.158;2023-02-18T12:35:48;100674.00;;;13.30
13570;BMP180;6856;51.460;7.158;2023-02-18T12:39:10;100674.00;;;13.30
13570;BMP180;6856;51.460;7.158;2023-02-18T12:42:25;100673.00;;;13.30
13570;BMP180;6856;51.460;7.158;2023-02-18T12:45:33;100684.00;;;13.30
13570;BMP180;6856;51.460;7.158;2023-02-18T12:48:36;100678.00;;;13.30
13570;BMP180;6856;51.460;7.158;2023-02-18T12:51:34;100675.00;;;13.40
13570;BMP180;6856;51.460;7.158;2023-02-18T12:54:35;100639.00;;;13.40
13570;BMP180;6856;51.460;7.158;2023-02-18T12:57:42;100683.00;;;13.40
13570;BMP180;6856;51.460;7.158;2023-02-18T13:00:53;100674.00;;;13.40
13570;BMP180;6856;51.460;7.158;2023-02-18T13:04:09;100670.00;;;13.40
13570;BMP180;6856;51.460;7.158;2023-02-18T13:07:38;100669.00;;;13.50
13570;BMP180;6856;51.460;7.158;2023-02-18T13:10:46;100674.00;;;13.50
13570;BMP180;6856;51.460;7.158;2023-02-18T13:13:30;100668.00;;;13.50
13570;BMP180;6856;51.460;7.158;2023-02-18T13:16:10;100670.00;;;13.50
13570;BMP180;6856;51.460;7.158;2023-02-18T13:19:15;100677.00;;;13.50
13570;BMP180;6856;51.460;7.158;2023-02-18T13:21:59;100682.00;;;13.50
13570;BMP180;6856;51.460;7.158;2023-02-18T13:24:39;100665.00;;;13.50
13570;BMP180;6856;51.460;7.158;2023-02-18T13:27:30;100680.00;;;13.50
13570;BMP180;6856;51.460;7.158;2023-02-18T13:30:21;100654.00;;;13.50
13570;BMP180;6856;51.460;7.158;2023-02-18T13:33:22;100670.00;;;13.50
13570;BMP180;6856;51.460;7.158;2023-02-18T13:36:22;100675.00;;;13.60
13570;BMP180;6856;51.460;7.158;2023-02-18T13:39:15;100672.00;;;13.60
13570;BMP180;6856;51.460;7.158;2023-02-18T13:42:22;100661.00;;;13.60
13570;BMP180;6856;51.460;7.158;2023-02-18T13:45:26;100673.00;;;13.60
13570;BMP180;6856;51.460;7.158;2023-02-18T13:48:24;100660.00;;;13.60
13570;BMP180;6856;51.460;7.158;2023-02-18T13:51:05;100670.00;;;13.60
13570;BMP180;6856;51.460;7.158;2023-02-18T13:53:48;100616.00;;;13.60
13570;BMP180;6856;51.460;7.158;2023-02-18T13:56:28;100675.00;;;13.60
13570;BMP180;6856;51.460;7.158;2023-02-18T13:59:11;100646.00;;;13.70
13570;BMP180;6856;51.460;7.158;2023-02-18T14:01:51;100656.00;;;13.70
13570;BMP180;6856;51.460;7.158;2023-02-18T14:04:53;100656.00;;;13.70
13570;BMP180;6856;51.460;7.158;2023-02-18T14:08:05;100661.00;;;13.70
13570;BMP180;6856;51.460;7.158;2023-02-18T14:11:34;100667.00;;;13.70
13570;BMP180;6856;51.460;7.158;2023-02-18T14:14:38;100659.00;;;13.70
13570;BMP180;6856;51.460;7.158;2023-02-18T14:17:37;100664.00;;;13.80
13570;BMP180;6856;51.460;7.158;2023-02-18T14:20:50;100666.00;;;13.80
13570;BMP180;6856;51.460;7.158;2023-02-18T14:23:55;100665.00;;;13.80
13570;BMP180;6856;51.460;7.158;2023-02-18T14:26:39;100661.00;;;13.80
13570;BMP180;6856;51.460;7.158;2023-02-18T14:29:27;100661.00;;;13.80
13570;BMP180;6856;51.460;7.158;2023-02-18T14:32:09;100656.00;;;13.70
13570;BMP180;6856;51.460;7.158;2023-02-18T14:35:24;100663.00;;;13.80
13570;BMP180;6856;51.460;7.158;2023-02-18T14:38:32;100660.00;;;13.80
13570;BMP180;6856;51.460;7.158;2023-02-18T14:41:34;100650.00;;;13.80
13570;BMP180;6856;51.460;7.158;2023-02-18T14:44:49;100671.00;;;13.80
13570;BMP180;6856;51.460;7.158;2023-02-18T14:47:37;100670.00;;;13.80
13570;BMP180;6856;51.460;7.158;2023-02-18T14:50:17;100667.00;;;13.90
13570;BMP180;6856;51.460;7.158;2023-02-18T14:53:07;100668.00;;;13.90
13570;BMP180;6856;51.460;7.158;2023-02-18T14:55:47;100667.00;;;13.80
13570;BMP180;6856;51.460;7.158;2023-02-18T14:58:35;100664.00;;;13.80
13570;BMP180;6856;51.460;7.158;2023-02-18T15:01:35;100680.00;;;13.90
13570;BMP180;6856;51.460;7.158;2023-02-18T15:04:13;100665.00;;;13.90
13570;BMP180;6856;51.460;7.158;2023-02-18T15:06:58;100668.00;;;13.90
13570;BMP180;6856;51.460;7.158;2023-02-18T15:09:52;100675.00;;;13.90
13570;BMP180;6856;51.460;7.158;2023-02-18T15:12:28;100655.00;;;13.90
13570;BMP180;6856;51.460;7.158;2023-02-18T15:15:04;100663.00;;;13.90
13570;BMP180;6856;51.460;7.158;2023-02-18T15:17:45;100655.00;;;14.00
13570;BMP180;6856;51.460;7.158;2023-02-18T15:20:20;100659.00;;;14.00
13570;BMP180;6856;51.460;7.158;2023-02-18T15:22:55;100671.00;;;14.00
13570;BMP180;6856;51.460;7.158;2023-02-18T15:25:31;100678.00;;;14.00
13570;BMP180;6856;51.460;7.158;2023-02-18T15:28:04;100676.00;;;14.00
13570;BMP180;6856;51.460;7.158;2023-02-18T15:30:38;100672.00;;;14.00
13570;BMP180;6856;51.460;7.158;2023-02-18T15:33:18;100678.00;;;14.00
13570;BMP180;6856;51.460;7.158;2023-02-18T15:36:00;100680.00;;;14.00
13570;BMP180;6856;51.460;7.158;2023-02-18T15:38:35;100686.00;;;14.00